Time;durP1;ratioP1;P1;durP2;ratioP2;P2;SDS_P1;SDS_P2;PMS_P1;PMS_P2;Temp;Humidity;BMP_temperature;BMP_pressure;BME280_temperature;BME280_humidity;BME280_pressure;Samples;Min_cycle;Max_cycle;Signal;HPM_P1;HPM_P2
2021/08/11 00:01:53;;;;;;;5.03;1.08;;;;;;;;;;5005527;28;20534;-77
2021/08/11 00:04:20;;;;;;;2.28;0.50;;;;;;;;;;5009177;28;20038;-77
2021/08/11 00:06:47;;;;;;;3.28;0.70;;;;;;;;;;5008626;28;20038;-78
2021/08/11 00:09:14;;;;;;;3.15;0.80;;;;;;;;;;5005570;28;20396;-77
2021/08/11 00:11:41;;;;;;;3.33;0.80;;;;;;;;;;5017346;28;20058;-76
2021/08/11 00:14:09;;;;;;;4.60;0.50;;;;;;;;;;5006495;28;20050;-77
2021/08/11 00:16:36;;;;;;;2.58;0.82;;;;;;;;;;5028158;28;20038;-76
2021/08/11 00:19:03;;;;;;;8.63;0.90;;;;;;;;;;4989520;28;20042;-76
2021/08/11 00:21:30;;;;;;;3.45;0.60;;;;;;;;;;5030560;28;20405;-76
2021/08/11 00:23:57;;;;;;;3.03;0.50;;;;;;;;;;4993696;28;20581;-76
2021/08/11 00:26:24;;;;;;;1.88;0.63;;;;;;;;;;5011443;28;20116;-77
2021/08/11 00:28:51;;;;;;;2.28;0.65;;;;;;;;;;5008872;28;20041;-77
2021/08/11 00:31:19;;;;;;;2.45;0.60;;;;;;;;;;5009142;28;20038;-77
2021/08/11 00:33:46;;;;;;;2.55;0.60;;;;;;;;;;5012843;28;20515;-77
2021/08/11 00:36:13;;;;;;;2.03;0.70;;;;;;;;;;5017276;28;20507;-77
2021/08/11 00:38:40;;;;;;;4.70;0.73;;;;;;;;;;5000936;28;20045;-77
2021/08/11 00:41:07;;;;;;;3.03;0.98;;;;;;;;;;5032609;28;20041;-77
2021/08/11 00:43:34;;;;;;;3.58;0.82;;;;;;;;;;4993081;28;20129;-77
2021/08/11 00:46:02;;;;;;;2.58;0.85;;;;;;;;;;5013823;28;20547;-77
2021/08/11 00:48:29;;;;;;;5.15;0.70;;;;;;;;;;5012190;28;20041;-77
2021/08/11 00:50:57;;;;;;;5.53;1.00;;;;;;;;;;5012764;28;20348;-78
2021/08/11 00:53:27;;;;;;;1.95;0.50;;;;;;;;;;5014445;28;20030;-77
2021/08/11 00:55:56;;;;;;;3.25;0.80;;;;;;;;;;5026853;28;20041;-77
2021/08/11 00:58:24;;;;;;;4.70;1.05;;;;;;;;;;5006823;28;20026;-78
2021/08/11 01:00:52;;;;;;;3.22;0.70;;;;;;;;;;5011222;28;20480;-78
2021/08/11 01:03:20;;;;;;;5.85;0.80;;;;;;;;;;5007676;28;20037;-78
2021/08/11 01:05:48;;;;;;;3.83;0.80;;;;;;;;;;5009492;28;20069;-78
2021/08/11 01:08:16;;;;;;;6.18;1.00;;;;;;;;;;4992455;28;20448;-76
2021/08/11 01:10:44;;;;;;;2.08;0.50;;;;;;;;;;4990506;28;20038;-77
2021/08/11 01:13:13;;;;;;;2.75;0.60;;;;;;;;;;5019906;28;20038;-77
2021/08/11 01:15:45;;;;;;;4.43;0.90;;;;;;;;;;5011118;28;20053;-77
2021/08/11 01:18:16;;;;;;;2.88;0.88;;;;;;;;;;5010078;28;20080;-78
2021/08/11 01:20:52;;;;;;;4.63;1.05;;;;;;;;;;5013483;28;20388;-78
2021/08/11 01:23:21;;;;;;;2.95;0.55;;;;;;;;;;5011864;28;20037;-77
2021/08/11 01:25:51;;;;;;;4.50;1.15;;;;;;;;;;5010128;28;20249;-77
2021/08/11 01:28:37;;;;;;;4.90;1.10;;;;;;;;;;5012198;28;20045;-78
2021/08/11 01:31:14;;;;;;;2.25;0.77;;;;;;;;;;5010344;28;20652;-78
2021/08/11 01:33:53;;;;;;;3.28;0.75;;;;;;;;;;5009344;28;20037;-77
2021/08/11 01:36:26;;;;;;;4.07;0.63;;;;;;;;;;5011820;28;20042;-79
2021/08/11 01:39:13;;;;;;;3.60;1.00;;;;;;;;;;5019744;28;20053;-77
2021/08/11 01:41:45;;;;;;;3.97;0.77;;;;;;;;;;5014770;28;20033;-77
2021/08/11 01:44:12;;;;;;;2.65;0.50;;;;;;;;;;4991657;28;20042;-76
2021/08/11 01:46:43;;;;;;;4.50;0.80;;;;;;;;;;5012598;28;20388;-76
2021/08/11 01:49:13;;;;;;;3.03;0.65;;;;;;;;;;5002375;28;20042;-75
2021/08/11 01:51:42;;;;;;;2.17;0.50;;;;;;;;;;5011917;28;20033;-76
2021/08/11 01:54:10;;;;;;;5.13;0.93;;;;;;;;;;5010068;28;20041;-75
2021/08/11 01:56:41;;;;;;;3.30;0.70;;;;;;;;;;5012745;28;20017;-74
2021/08/11 01:59:08;;;;;;;3.88;0.68;;;;;;;;;;5010007;28;20046;-76
2021/08/11 02:01:42;;;;;;;2.67;0.60;;;;;;;;;;5012587;28;20029;-76
2021/08/11 02:04:10;;;;;;;3.67;0.60;;;;;;;;;;5009768;28;20176;-75
2021/08/11 02:06:37;;;;;;;4.85;0.77;;;;;;;;;;5012119;28;20427;-76
2021/08/11 02:09:05;;;;;;;1.50;0.45;;;;;;;;;;5008524;28;20057;-74
2021/08/11 02:11:37;;;;;;;2.63;0.80;;;;;;;;;;4986229;28;20037;-75
2021/08/11 02:14:05;;;;;;;5.00;0.90;;;;;;;;;;5001496;28;20056;-75
2021/08/11 02:16:33;;;;;;;4.35;0.50;;;;;;;;;;5007226;28;20112;-76
2021/08/11 02:19:00;;;;;;;5.60;1.15;;;;;;;;;;5005864;28;20038;-75
2021/08/11 02:21:27;;;;;;;2.95;0.45;;;;;;;;;;5009583;28;20060;-76
2021/08/11 02:23:54;;;;;;;2.80;0.47;;;;;;;;;;5004788;28;20503;-76
2021/08/11 02:26:32;;;;;;;4.95;0.60;;;;;;;;;;5005186;28;20091;-76
2021/08/11 02:28:59;;;;;;;2.97;0.52;;;;;;;;;;5006193;28;20046;-76
2021/08/11 02:31:26;;;;;;;3.35;0.68;;;;;;;;;;5005846;28;20037;-76
2021/08/11 02:33:59;;;;;;;4.13;0.68;;;;;;;;;;5005070;28;20385;-77
2021/08/11 02:36:31;;;;;;;3.85;1.00;;;;;;;;;;5006732;28;20038;-76
2021/08/11 02:39:01;;;;;;;4.78;0.70;;;;;;;;;;5006580;28;20057;-77
2021/08/11 02:41:34;;;;;;;5.25;0.65;;;;;;;;;;5009827;28;20033;-75
2021/08/11 02:44:04;;;;;;;3.58;0.70;;;;;;;;;;4990531;28;20039;-79
2021/08/11 02:46:33;;;;;;;2.80;0.60;;;;;;;;;;5004406;28;20045;-78
2021/08/11 02:49:06;;;;;;;4.22;0.77;;;;;;;;;;5007402;28;20069;-82
2021/08/11 02:51:35;;;;;;;3.27;0.87;;;;;;;;;;4988691;28;20514;-82
2021/08/11 02:54:22;;;;;;;3.38;1.05;;;;;;;;;;5003140;28;20291;-80
2021/08/11 02:56:49;;;;;;;6.72;0.50;;;;;;;;;;5007699;28;20064;-80
2021/08/11 02:59:16;;;;;;;3.35;0.68;;;;;;;;;;5006526;28;20049;-80
2021/08/11 03:01:44;;;;;;;2.95;0.70;;;;;;;;;;4992602;28;20038;-81
2021/08/11 03:04:11;;;;;;;5.57;0.80;;;;;;;;;;5004308;28;20128;-82
2021/08/11 03:06:38;;;;;;;3.67;0.70;;;;;;;;;;4988926;28;20081;-82
2021/08/11 03:09:06;;;;;;;5.18;1.73;;;;;;;;;;5006197;28;20069;-82
2021/08/11 03:11:34;;;;;;;3.60;0.80;;;;;;;;;;5004740;28;20030;-82
2021/08/11 03:14:02;;;;;;;3.38;0.77;;;;;;;;;;4987719;28;20172;-82
2021/08/11 03:16:30;;;;;;;10.82;2.17;;;;;;;;;;5018924;28;20065;-82
2021/08/11 03:18:57;;;;;;;4.38;0.90;;;;;;;;;;5010455;28;20038;-82
2021/08/11 03:21:25;;;;;;;5.43;0.85;;;;;;;;;;5009501;28;20073;-82
2021/08/11 03:23:52;;;;;;;3.65;0.85;;;;;;;;;;5007818;28;20037;-82
2021/08/11 03:26:19;;;;;;;2.90;0.75;;;;;;;;;;5018635;28;20030;-80
2021/08/11 03:28:46;;;;;;;2.42;0.52;;;;;;;;;;5006550;28;20038;-82
2021/08/11 03:31:13;;;;;;;14.55;3.00;;;;;;;;;;5012054;28;20384;-82
2021/08/11 03:33:40;;;;;;;4.25;1.02;;;;;;;;;;5010609;28;20033;-83
2021/08/11 03:36:08;;;;;;;5.82;1.05;;;;;;;;;;5004812;28;20117;-81
2021/08/11 03:38:35;;;;;;;4.38;0.80;;;;;;;;;;4993429;28;20045;-83
2021/08/11 03:41:02;;;;;;;3.10;0.55;;;;;;;;;;5019956;28;20421;-81
2021/08/11 03:43:29;;;;;;;2.17;0.70;;;;;;;;;;5021100;28;20129;-81
2021/08/11 03:45:56;;;;;;;3.45;0.88;;;;;;;;;;5029728;28;20502;-81
2021/08/11 03:48:23;;;;;;;3.50;0.75;;;;;;;;;;5019032;28;20037;-81
2021/08/11 03:50:51;;;;;;;2.65;0.68;;;;;;;;;;5021157;28;20092;-81
2021/08/11 03:53:18;;;;;;;3.50;0.50;;;;;;;;;;5012901;28;20048;-81
2021/08/11 03:55:45;;;;;;;3.65;0.50;;;;;;;;;;5014538;28;20038;-81
2021/08/11 03:58:12;;;;;;;4.68;0.77;;;;;;;;;;5014787;28;20030;-81
2021/08/11 04:00:41;;;;;;;3.05;0.57;;;;;;;;;;5007646;28;20042;-81
2021/08/11 04:03:08;;;;;;;2.97;0.60;;;;;;;;;;5011336;28;20038;-81
2021/08/11 04:05:35;;;;;;;3.95;0.88;;;;;;;;;;5009494;28;20403;-82
2021/08/11 04:08:02;;;;;;;9.95;0.98;;;;;;;;;;5011405;28;20053;-81
2021/08/11 04:10:30;;;;;;;3.70;0.60;;;;;;;;;;5014908;28;20084;-82
2021/08/11 04:12:57;;;;;;;4.20;0.93;;;;;;;;;;5010806;28;20026;-79
2021/08/11 04:15:24;;;;;;;3.15;0.57;;;;;;;;;;5007137;28;20115;-79
2021/08/11 04:17:51;;;;;;;5.15;0.75;;;;;;;;;;5012063;28;20110;-80
2021/08/11 04:20:20;;;;;;;6.68;0.60;;;;;;;;;;4995647;28;20046;-80
2021/08/11 04:22:47;;;;;;;4.57;0.93;;;;;;;;;;4993321;28;20463;-84
2021/08/11 04:25:14;;;;;;;4.15;0.75;;;;;;;;;;4996457;28;20137;-83
2021/08/11 04:27:41;;;;;;;4.10;0.93;;;;;;;;;;4998829;28;20058;-83
2021/08/11 04:30:09;;;;;;;4.38;1.02;;;;;;;;;;5014369;28;20065;-83
2021/08/11 04:32:36;;;;;;;3.90;0.77;;;;;;;;;;5011391;28;20108;-85
2021/08/11 04:35:07;;;;;;;4.03;0.70;;;;;;;;;;4992598;28;20037;-79
2021/08/11 04:37:38;;;;;;;3.13;0.57;;;;;;;;;;5006058;28;20053;-82
2021/08/11 04:40:06;;;;;;;2.28;0.52;;;;;;;;;;4987089;28;20045;-81
2021/08/11 04:42:34;;;;;;;2.08;0.50;;;;;;;;;;5011518;28;20053;-80
2021/08/11 04:45:01;;;;;;;2.60;0.75;;;;;;;;;;5020188;28;20033;-80
2021/08/11 04:47:28;;;;;;;1.40;0.43;;;;;;;;;;5014105;28;20048;-79
2021/08/11 04:49:56;;;;;;;2.10;0.50;;;;;;;;;;5006238;28;20117;-80
2021/08/11 04:52:23;;;;;;;5.25;1.02;;;;;;;;;;5014424;28;20030;-81
2021/08/11 04:54:50;;;;;;;2.67;0.50;;;;;;;;;;5013493;28;20100;-79
2021/08/11 04:57:17;;;;;;;2.97;0.40;;;;;;;;;;5005648;28;20293;-80
2021/08/11 04:59:45;;;;;;;3.83;0.50;;;;;;;;;;5026607;28;20041;-81
2021/08/11 05:02:12;;;;;;;4.35;0.50;;;;;;;;;;5024628;28;20037;-81
2021/08/11 05:04:39;;;;;;;2.67;0.75;;;;;;;;;;5033810;28;20124;-81
2021/08/11 05:07:09;;;;;;;4.05;0.70;;;;;;;;;;5024397;28;20029;-79
2021/08/11 05:09:37;;;;;;;2.08;0.40;;;;;;;;;;5019264;28;20029;-80
2021/08/11 05:12:04;;;;;;;2.92;0.45;;;;;;;;;;5033829;28;20033;-82
2021/08/11 05:14:32;;;;;;;2.00;0.40;;;;;;;;;;5014766;28;20512;-80
2021/08/11 05:17:00;;;;;;;6.35;0.65;;;;;;;;;;5012347;28;20062;-81
2021/08/11 05:19:27;;;;;;;5.13;1.30;;;;;;;;;;5009981;28;20128;-80
2021/08/11 05:21:54;;;;;;;5.72;1.13;;;;;;;;;;5011817;28;20060;-80
2021/08/11 05:24:22;;;;;;;6.72;1.05;;;;;;;;;;4987554;28;20041;-81
2021/08/11 05:26:49;;;;;;;3.22;0.77;;;;;;;;;;5004048;28;20058;-81
2021/08/11 05:29:19;;;;;;;4.70;1.10;;;;;;;;;;5005525;28;20034;-82
2021/08/11 05:31:47;;;;;;;1.65;0.40;;;;;;;;;;5012733;28;20049;-80
2021/08/11 05:34:14;;;;;;;3.85;0.80;;;;;;;;;;5013069;28;20101;-80
2021/08/11 05:36:41;;;;;;;5.50;1.15;;;;;;;;;;5013601;28;20113;-81
2021/08/11 05:39:09;;;;;;;5.05;0.60;;;;;;;;;;5009513;28;20672;-80
2021/08/11 05:41:36;;;;;;;4.18;0.85;;;;;;;;;;5012326;28;20041;-80
2021/08/11 05:44:04;;;;;;;3.33;0.50;;;;;;;;;;5013067;28;20040;-80
2021/08/11 05:46:31;;;;;;;3.20;0.80;;;;;;;;;;5025442;28;20037;-79
2021/08/11 05:48:58;;;;;;;2.63;0.50;;;;;;;;;;5007012;28;20391;-80
2021/08/11 05:51:26;;;;;;;1.95;0.40;;;;;;;;;;5012712;28;20030;-80
2021/08/11 05:53:53;;;;;;;3.55;0.70;;;;;;;;;;5011516;28;20084;-79
2021/08/11 05:56:20;;;;;;;6.10;0.60;;;;;;;;;;5012770;28;20030;-78
2021/08/11 05:58:47;;;;;;;7.85;0.70;;;;;;;;;;4988797;28;20490;-79
2021/08/11 06:01:15;;;;;;;2.40;0.45;;;;;;;;;;5012713;28;20038;-78
2021/08/11 06:03:42;;;;;;;3.83;0.60;;;;;;;;;;5012462;28;20048;-80
2021/08/11 06:06:10;;;;;;;3.42;0.60;;;;;;;;;;5013320;28;20034;-78
2021/08/11 06:08:38;;;;;;;6.45;1.02;;;;;;;;;;5012691;28;20074;-83
2021/08/11 06:11:05;;;;;;;4.47;0.50;;;;;;;;;;5010267;28;20437;-80
2021/08/11 06:13:32;;;;;;;4.57;0.55;;;;;;;;;;5017629;28;20045;-78
2021/08/11 06:15:59;;;;;;;3.83;0.68;;;;;;;;;;5021426;28;20499;-77
2021/08/11 06:18:26;;;;;;;4.35;0.45;;;;;;;;;;5028404;28;20124;-78
2021/08/11 06:20:55;;;;;;;2.28;0.50;;;;;;;;;;5028029;28;20044;-78
2021/08/11 06:23:22;;;;;;;3.58;0.65;;;;;;;;;;5001962;28;20478;-76
2021/08/11 06:25:49;;;;;;;4.43;0.70;;;;;;;;;;5005745;28;20065;-77
2021/08/11 06:28:16;;;;;;;8.30;0.80;;;;;;;;;;5008244;28;20030;-77
2021/08/11 06:30:44;;;;;;;3.97;0.70;;;;;;;;;;4999745;28;20112;-76
2021/08/11 06:33:11;;;;;;;2.45;0.50;;;;;;;;;;4994154;28;20701;-77
2021/08/11 06:35:38;;;;;;;2.30;0.75;;;;;;;;;;4990603;28;20038;-77
2021/08/11 06:38:05;;;;;;;2.03;0.50;;;;;;;;;;5020714;28;20034;-78
2021/08/11 06:40:36;;;;;;;3.03;0.60;;;;;;;;;;5011848;28;20351;-78
2021/08/11 06:43:03;;;;;;;3.28;0.73;;;;;;;;;;4993966;28;20037;-78
2021/08/11 06:45:31;;;;;;;4.22;0.90;;;;;;;;;;5011104;28;20097;-77
2021/08/11 06:53:41;;;;;;;5.60;1.10;;;;;;;;;;5006183;28;20060;-77
2021/08/11 06:56:08;;;;;;;3.45;0.38;;;;;;;;;;4996666;28;20463;-79
2021/08/11 06:58:36;;;;;;;3.92;0.50;;;;;;;;;;5010985;28;20137;-80
2021/08/11 07:01:04;;;;;;;4.15;0.50;;;;;;;;;;4984748;28;20046;-80
2021/08/11 07:03:34;;;;;;;2.55;0.50;;;;;;;;;;5012334;28;20038;-79
2021/08/11 07:06:02;;;;;;;4.63;0.60;;;;;;;;;;5010325;28;20046;-78
2021/08/11 07:08:29;;;;;;;2.63;0.50;;;;;;;;;;5006415;28;20107;-82
2021/08/11 07:10:56;;;;;;;1.50;0.55;;;;;;;;;;5009039;28;20030;-84
2021/08/11 07:13:23;;;;;;;2.90;1.08;;;;;;;;;;5014049;28;20042;-81
2021/08/11 07:15:51;;;;;;;2.55;0.50;;;;;;;;;;5031704;28;20037;-83
2021/08/11 07:18:20;;;;;;;2.70;0.60;;;;;;;;;;5031451;28;20037;-83
2021/08/11 07:20:47;;;;;;;3.72;0.80;;;;;;;;;;4998827;28;20053;-81
2021/08/11 07:23:14;;;;;;;3.17;0.50;;;;;;;;;;5010969;28;20038;-84
2021/08/11 07:25:41;;;;;;;3.45;0.70;;;;;;;;;;5012752;28;20034;-82
2021/08/11 07:28:09;;;;;;;3.17;0.68;;;;;;;;;;5019086;28;20036;-83
2021/08/11 07:30:36;;;;;;;1.70;0.38;;;;;;;;;;5020808;28;20065;-83
2021/08/11 07:33:07;;;;;;;5.82;0.85;;;;;;;;;;5019474;28;20092;-81
2021/08/11 07:35:34;;;;;;;3.03;0.80;;;;;;;;;;4994973;28;20415;-84
2021/08/11 07:38:01;;;;;;;2.78;0.82;;;;;;;;;;5018153;28;20040;-82
2021/08/11 07:40:29;;;;;;;1.63;0.50;;;;;;;;;;5011197;28;20499;-81
2021/08/11 07:42:57;;;;;;;2.17;0.57;;;;;;;;;;5015472;28;20088;-83
2021/08/11 07:45:25;;;;;;;3.13;1.08;;;;;;;;;;5010849;28;20435;-82
2021/08/11 07:47:58;;;;;;;3.63;0.77;;;;;;;;;;5014247;28;20537;-82
2021/08/11 07:50:27;;;;;;;2.70;0.50;;;;;;;;;;5017614;28;20054;-81
2021/08/11 07:52:54;;;;;;;2.72;0.60;;;;;;;;;;5032223;28;20502;-81
2021/08/11 07:55:21;;;;;;;3.22;0.50;;;;;;;;;;5034523;28;20049;-82
2021/08/11 07:57:48;;;;;;;4.53;0.75;;;;;;;;;;5011610;28;20040;-84
2021/08/11 08:00:16;;;;;;;5.85;0.95;;;;;;;;;;5005143;28;20133;-82
2021/08/11 08:02:44;;;;;;;1.77;0.55;;;;;;;;;;5008272;28;20041;-82
2021/08/11 08:05:12;;;;;;;3.38;0.60;;;;;;;;;;5015449;28;20038;-82
2021/08/11 08:07:39;;;;;;;3.28;0.70;;;;;;;;;;5020855;28;20500;-82
2021/08/11 08:10:06;;;;;;;4.38;1.73;;;;;;;;;;5023031;28;20483;-81
2021/08/11 08:12:34;;;;;;;8.93;4.82;;;;;;;;;;5012919;28;20080;-83
2021/08/11 08:15:01;;;;;;;10.23;4.75;;;;;;;;;;5009320;28;20391;-83
2021/08/11 08:17:28;;;;;;;5.82;2.30;;;;;;;;;;5014237;28;20030;-83
2021/08/11 08:19:55;;;;;;;11.60;7.40;;;;;;;;;;4995968;28;20451;-82
2021/08/11 08:22:22;;;;;;;5.35;3.05;;;;;;;;;;5019265;28;20026;-82
2021/08/11 08:24:54;;;;;;;7.60;1.45;;;;;;;;;;5012943;28;20038;-82
2021/08/11 08:27:25;;;;;;;3.78;0.88;;;;;;;;;;5015487;28;20081;-82
2021/08/11 08:29:52;;;;;;;4.95;0.80;;;;;;;;;;5018488;28;20030;-84
2021/08/11 08:32:19;;;;;;;4.38;0.93;;;;;;;;;;5003184;28;20491;-84
2021/08/11 08:34:47;;;;;;;4.72;1.00;;;;;;;;;;5013443;28;20116;-84
2021/08/11 08:37:14;;;;;;;1.98;0.80;;;;;;;;;;5018824;28;20403;-83
2021/08/11 08:39:41;;;;;;;5.65;1.13;;;;;;;;;;5020795;28;20088;-83
2021/08/11 08:42:08;;;;;;;3.85;1.00;;;;;;;;;;5013785;28;20033;-82
2021/08/11 08:44:35;;;;;;;5.60;0.82;;;;;;;;;;5018148;28;20037;-83
2021/08/11 08:47:02;;;;;;;2.47;1.10;;;;;;;;;;5001402;28;20026;-82
2021/08/11 08:49:30;;;;;;;4.68;1.10;;;;;;;;;;5012698;28;20056;-83
2021/08/11 08:51:57;;;;;;;5.97;2.25;;;;;;;;;;5018228;28;20488;-83
2021/08/11 08:54:25;;;;;;;4.15;1.60;;;;;;;;;;5011553;28;20050;-85
2021/08/11 08:56:52;;;;;;;5.70;3.25;;;;;;;;;;4985653;28;20026;-84
2021/08/11 08:59:19;;;;;;;6.53;2.20;;;;;;;;;;5008661;28;20054;-85
2021/08/11 09:01:46;;;;;;;7.20;2.47;;;;;;;;;;5005354;28;20108;-82
2021/08/11 09:04:13;;;;;;;5.07;1.83;;;;;;;;;;5006731;28;20108;-83
2021/08/11 09:06:41;;;;;;;5.57;1.08;;;;;;;;;;5010773;28;20030;-84
2021/08/11 09:09:09;;;;;;;6.15;1.48;;;;;;;;;;5000262;28;20038;-83
2021/08/11 09:11:36;;;;;;;7.32;1.80;;;;;;;;;;4997248;28;20045;-83
2021/08/11 09:14:16;;;;;;;2.88;0.95;;;;;;;;;;4991257;28;20046;-84
2021/08/11 09:16:47;;;;;;;4.85;1.00;;;;;;;;;;4990596;28;20492;-84
2021/08/11 09:19:15;;;;;;;4.47;1.20;;;;;;;;;;5000989;28;20057;-83
2021/08/11 09:21:56;;;;;;;6.43;1.10;;;;;;;;;;5007952;28;20030;-82
2021/08/11 09:24:24;;;;;;;4.72;1.73;;;;;;;;;;5007976;28;20173;-83
2021/08/11 09:26:51;;;;;;;5.35;1.42;;;;;;;;;;5001260;28;20034;-83
2021/08/11 09:29:19;;;;;;;5.55;1.10;;;;;;;;;;5000775;28;20535;-82
2021/08/11 09:31:46;;;;;;;3.08;1.08;;;;;;;;;;4980322;28;20038;-83
2021/08/11 09:34:13;;;;;;;6.70;1.98;;;;;;;;;;5007595;28;20423;-85
2021/08/11 09:36:52;;;;;;;4.97;0.95;;;;;;;;;;4997248;28;20084;-84
2021/08/11 09:39:20;;;;;;;5.55;1.48;;;;;;;;;;4990958;28;20133;-84
2021/08/11 09:41:59;;;;;;;3.30;0.95;;;;;;;;;;5005600;28;20045;-85
2021/08/11 09:44:27;;;;;;;5.22;1.45;;;;;;;;;;5007437;28;20042;-83
2021/08/11 09:46:54;;;;;;;5.20;1.13;;;;;;;;;;4976863;28;22005;-84
2021/08/11 09:49:26;;;;;;;6.30;1.30;;;;;;;;;;4986413;28;20050;-84
2021/08/11 09:52:00;;;;;;;3.40;1.35;;;;;;;;;;4981797;28;20037;-84
2021/08/11 09:54:29;;;;;;;4.03;0.80;;;;;;;;;;5003775;28;20492;-84
2021/08/11 09:56:56;;;;;;;4.70;0.75;;;;;;;;;;5018387;28;20081;-85
2021/08/11 09:59:24;;;;;;;3.65;0.82;;;;;;;;;;5018295;28;20141;-85
2021/08/11 10:01:51;;;;;;;4.07;0.90;;;;;;;;;;5013139;28;20045;-85
2021/08/11 10:04:19;;;;;;;4.90;0.80;;;;;;;;;;5013947;28;20046;-84
2021/08/11 10:06:47;;;;;;;6.15;1.02;;;;;;;;;;5015989;28;20038;-84
2021/08/11 10:09:23;;;;;;;2.95;0.63;;;;;;;;;;5012379;28;20042;-83
2021/08/11 10:11:51;;;;;;;2.65;1.00;;;;;;;;;;5012125;28;20470;-84
2021/08/11 10:14:21;;;;;;;4.32;0.88;;;;;;;;;;5019609;28;20048;-84
2021/08/11 10:16:50;;;;;;;4.03;0.70;;;;;;;;;;5017818;28;20551;-84
2021/08/11 10:19:17;;;;;;;6.47;0.60;;;;;;;;;;5018442;28;20496;-84
2021/08/11 10:21:58;;;;;;;3.78;0.52;;;;;;;;;;5014083;28;20037;-84
2021/08/11 10:24:25;;;;;;;3.95;0.70;;;;;;;;;;4994924;28;20450;-83
2021/08/11 10:26:53;;;;;;;3.35;0.95;;;;;;;;;;5022654;28;20100;-84
2021/08/11 10:29:20;;;;;;;3.10;0.63;;;;;;;;;;5014538;28;20049;-83
2021/08/11 10:31:48;;;;;;;2.47;0.85;;;;;;;;;;5019580;28;20026;-82
2021/08/11 10:34:19;;;;;;;3.10;1.00;;;;;;;;;;5002580;28;20414;-82
2021/08/11 10:36:47;;;;;;;3.08;0.70;;;;;;;;;;5018095;28;20128;-84
2021/08/11 10:39:14;;;;;;;1.83;0.63;;;;;;;;;;4993365;28;20057;-83
2021/08/11 10:41:42;;;;;;;4.13;1.02;;;;;;;;;;4995245;28;20117;-83
2021/08/11 10:44:17;;;;;;;4.57;0.93;;;;;;;;;;5003043;28;20041;-84
2021/08/11 10:46:46;;;;;;;4.13;0.60;;;;;;;;;;5012625;28;20046;-84
2021/08/11 10:49:17;;;;;;;3.60;0.40;;;;;;;;;;5019011;28;20037;-84
2021/08/11 10:51:48;;;;;;;3.38;0.60;;;;;;;;;;5012302;28;20038;-83
2021/08/11 10:54:18;;;;;;;2.05;0.60;;;;;;;;;;5015958;28;20042;-83
2021/08/11 10:56:45;;;;;;;4.15;0.60;;;;;;;;;;5011424;28;20034;-84
2021/08/11 10:59:26;;;;;;;3.33;0.40;;;;;;;;;;5000849;28;20049;-83
2021/08/11 11:01:53;;;;;;;6.90;0.68;;;;;;;;;;5024267;28;20100;-84
2021/08/11 11:04:39;;;;;;;3.40;0.63;;;;;;;;;;5003727;28;20044;-83
2021/08/11 11:07:12;;;;;;;3.83;0.95;;;;;;;;;;5008682;28;20030;-80
2021/08/11 11:09:40;;;;;;;5.07;1.00;;;;;;;;;;5016101;28;20045;-83
2021/08/11 11:12:19;;;;;;;3.47;0.38;;;;;;;;;;5031151;28;20103;-82
2021/08/11 11:14:48;;;;;;;3.40;0.73;;;;;;;;;;5028812;28;20033;-84
2021/08/11 11:17:16;;;;;;;3.72;0.50;;;;;;;;;;5015849;28;20049;-83
2021/08/11 11:20:09;;;;;;;3.63;0.70;;;;;;;;;;5011403;28;20495;-85
2021/08/11 11:22:37;;;;;;;2.60;0.55;;;;;;;;;;4972148;28;20037;-83
2021/08/11 11:25:06;;;;;;;3.33;0.50;;;;;;;;;;5011569;28;20504;-85
2021/08/11 11:27:39;;;;;;;3.55;0.70;;;;;;;;;;5011829;28;20046;-85
2021/08/11 11:30:07;;;;;;;3.35;0.40;;;;;;;;;;5013321;28;20037;-83
2021/08/11 11:32:35;;;;;;;2.30;0.35;;;;;;;;;;5011791;28;20037;-85
2021/08/11 11:35:22;;;;;;;3.10;0.75;;;;;;;;;;5011388;28;20145;-85
2021/08/11 11:38:07;;;;;;;5.05;0.70;;;;;;;;;;5008811;28;20116;-83
2021/08/11 11:40:54;;;;;;;1.63;0.57;;;;;;;;;;5015481;28;20073;-83
2021/08/11 11:43:31;;;;;;;3.55;0.38;;;;;;;;;;5006920;28;20542;-83
2021/08/11 11:45:59;;;;;;;3.22;0.63;;;;;;;;;;4988088;28;20125;-85
2021/08/11 11:48:26;;;;;;;3.90;0.60;;;;;;;;;;5003635;28;20041;-83
2021/08/11 11:51:04;;;;;;;3.67;0.65;;;;;;;;;;5006004;28;20052;-84
2021/08/11 11:53:32;;;;;;;2.67;0.50;;;;;;;;;;5000073;28;20050;-83
2021/08/11 11:56:09;;;;;;;2.13;0.70;;;;;;;;;;5001345;28;20496;-82
2021/08/11 11:58:41;;;;;;;2.85;0.50;;;;;;;;;;5004452;28;20137;-82
2021/08/11 12:01:10;;;;;;;3.80;0.50;;;;;;;;;;5006560;28;20057;-83
2021/08/11 12:03:41;;;;;;;3.55;0.40;;;;;;;;;;5002764;28;20038;-80
2021/08/11 12:06:10;;;;;;;2.08;0.50;;;;;;;;;;4988636;28;21436;-84
2021/08/11 12:08:38;;;;;;;4.65;1.13;;;;;;;;;;5003853;28;20115;-82
2021/08/11 12:11:14;;;;;;;4.35;0.60;;;;;;;;;;5006654;28;20480;-83
2021/08/11 12:13:42;;;;;;;4.28;0.50;;;;;;;;;;5009671;28;20041;-82
2021/08/11 12:16:12;;;;;;;2.88;0.75;;;;;;;;;;4994567;28;20037;-82
2021/08/11 12:18:41;;;;;;;3.65;0.40;;;;;;;;;;4989934;28;20121;-83
2021/08/11 12:21:09;;;;;;;6.63;0.55;;;;;;;;;;4991083;28;20042;-83
2021/08/11 12:23:36;;;;;;;1.40;0.30;;;;;;;;;;4989975;28;20053;-83
2021/08/11 12:26:08;;;;;;;3.03;0.55;;;;;;;;;;5011309;28;20113;-84
2021/08/11 12:28:37;;;;;;;3.85;0.60;;;;;;;;;;4991398;28;20042;-83
2021/08/11 12:31:04;;;;;;;1.20;0.30;;;;;;;;;;5009181;28;20084;-82
2021/08/11 12:33:32;;;;;;;1.85;0.40;;;;;;;;;;4990679;28;20536;-84
2021/08/11 12:36:01;;;;;;;4.28;0.43;;;;;;;;;;4995824;28;20077;-84
2021/08/11 12:38:29;;;;;;;5.38;0.55;;;;;;;;;;4993436;28;20545;-83
2021/08/11 12:40:57;;;;;;;7.20;0.82;;;;;;;;;;4995441;28;20046;-82
2021/08/11 12:43:36;;;;;;;3.08;0.60;;;;;;;;;;5010381;28;20042;-82
2021/08/11 12:46:05;;;;;;;2.47;0.30;;;;;;;;;;5012515;28;20061;-83
2021/08/11 12:48:33;;;;;;;1.85;0.30;;;;;;;;;;5013233;28;20032;-83
2021/08/11 12:51:02;;;;;;;4.72;0.80;;;;;;;;;;5008694;28;20040;-83
2021/08/11 12:53:33;;;;;;;2.22;0.40;;;;;;;;;;5008916;28;20123;-83
2021/08/11 12:56:07;;;;;;;4.57;1.02;;;;;;;;;;5011815;28;20449;-83
2021/08/11 12:58:53;;;;;;;2.95;0.50;;;;;;;;;;5008580;28;20038;-83
2021/08/11 13:01:29;;;;;;;2.88;0.40;;;;;;;;;;5005967;28;20046;-83
2021/08/11 13:03:56;;;;;;;3.20;0.60;;;;;;;;;;5007618;28;20509;-82
2021/08/11 13:06:52;;;;;;;2.20;0.65;;;;;;;;;;4994951;28;20450;-83
2021/08/11 13:09:19;;;;;;;2.72;0.60;;;;;;;;;;5001555;28;20053;-83
2021/08/11 13:12:07;;;;;;;3.75;0.30;;;;;;;;;;5011692;28;20026;-82
2021/08/11 13:14:48;;;;;;;3.63;0.75;;;;;;;;;;5011730;28;20046;-83
2021/08/11 13:17:16;;;;;;;5.47;0.50;;;;;;;;;;5009527;28;20395;-83
2021/08/11 13:19:43;;;;;;;3.38;0.47;;;;;;;;;;5012157;28;20049;-84
2021/08/11 13:22:20;;;;;;;5.72;0.70;;;;;;;;;;5009193;28;20643;-84
2021/08/11 13:49:21;;;;;;;5.75;0.63;;;;;;;;;;5006818;28;20069;-84
2021/08/11 13:51:49;;;;;;;5.70;2.08;;;;;;;;;;5015505;28;20124;-82
2021/08/11 13:54:16;;;;;;;2.55;0.40;;;;;;;;;;5013881;28;20041;-82
2021/08/11 13:56:43;;;;;;;6.70;1.02;;;;;;;;;;5016053;28;20396;-83
2021/08/11 13:59:10;;;;;;;2.13;0.65;;;;;;;;;;5018939;28;20050;-82
2021/08/11 14:01:37;;;;;;;1.77;0.68;;;;;;;;;;5001988;28;20037;-83
2021/08/11 14:04:04;;;;;;;4.10;0.47;;;;;;;;;;5016343;28;20038;-83
2021/08/11 14:06:31;;;;;;;2.00;0.40;;;;;;;;;;5014297;28;20403;-82
2021/08/11 14:08:59;;;;;;;6.10;0.60;;;;;;;;;;5011433;28;20065;-84
2021/08/11 14:11:26;;;;;;;3.60;0.52;;;;;;;;;;5012159;28;20098;-83
2021/08/11 14:13:53;;;;;;;0.75;0.20;;;;;;;;;;5007250;28;20030;-84
2021/08/11 14:16:20;;;;;;;5.82;0.43;;;;;;;;;;5011843;28;20120;-83
2021/08/11 14:18:47;;;;;;;1.27;0.30;;;;;;;;;;5010144;28;20160;-84
2021/08/11 14:21:15;;;;;;;4.72;0.40;;;;;;;;;;5005998;28;20401;-84
2021/08/11 14:23:42;;;;;;;0.47;0.20;;;;;;;;;;5007186;28;20034;-84
2021/08/11 14:26:09;;;;;;;3.40;0.65;;;;;;;;;;5004641;28;20037;-83
2021/08/11 14:28:36;;;;;;;3.83;0.40;;;;;;;;;;5011499;28;20483;-84
2021/08/11 14:31:03;;;;;;;1.73;0.35;;;;;;;;;;5013096;28;20037;-84
2021/08/11 14:33:30;;;;;;;2.88;0.25;;;;;;;;;;5009650;28;20106;-84
2021/08/11 14:35:58;;;;;;;2.28;0.32;;;;;;;;;;4993780;28;20558;-83
2021/08/11 14:38:25;;;;;;;1.38;0.30;;;;;;;;;;5004891;28;20038;-82
2021/08/11 14:40:52;;;;;;;1.58;0.28;;;;;;;;;;5012796;28;20046;-82
2021/08/11 14:43:19;;;;;;;1.38;0.25;;;;;;;;;;5003892;28;20485;-83
2021/08/11 14:45:46;;;;;;;3.53;0.47;;;;;;;;;;5011742;28;20038;-82
2021/08/11 14:48:13;;;;;;;1.92;0.43;;;;;;;;;;5004335;28;20112;-84
2021/08/11 14:50:40;;;;;;;3.03;0.28;;;;;;;;;;5012572;28;20107;-84
2021/08/11 14:53:08;;;;;;;3.25;0.30;;;;;;;;;;5009214;28;20046;-84
2021/08/11 14:55:35;;;;;;;2.20;0.65;;;;;;;;;;4992514;28;20512;-84
2021/08/11 14:58:03;;;;;;;2.10;0.38;;;;;;;;;;5009543;28;20041;-83
2021/08/11 15:00:31;;;;;;;3.50;0.30;;;;;;;;;;5011213;28;20443;-84
2021/08/11 15:02:58;;;;;;;1.58;0.25;;;;;;;;;;5010870;28;20038;-84
2021/08/11 15:05:25;;;;;;;2.78;0.20;;;;;;;;;;5011749;28;20045;-83
2021/08/11 15:07:53;;;;;;;3.03;0.30;;;;;;;;;;5009003;28;20041;-83
2021/08/11 15:10:20;;;;;;;1.88;0.20;;;;;;;;;;5011513;28;20065;-84
2021/08/11 15:12:48;;;;;;;1.63;0.20;;;;;;;;;;5009371;28;20125;-83
2021/08/11 15:15:17;;;;;;;1.75;0.20;;;;;;;;;;5007781;28;20073;-84
2021/08/11 15:17:44;;;;;;;1.70;0.40;;;;;;;;;;5009164;28;20068;-85
2021/08/11 15:20:11;;;;;;;0.98;0.28;;;;;;;;;;5011130;28;20060;-84
2021/08/11 15:22:38;;;;;;;3.03;0.82;;;;;;;;;;5008712;28;20034;-83
2021/08/11 15:25:06;;;;;;;1.92;0.30;;;;;;;;;;5006600;28;20431;-84